createdAt,value
2022-10-31T00:02:41.372Z,6.50
2022-10-31T00:07:44.297Z,6.42
2022-10-31T00:12:47.099Z,6.36
2022-10-31T00:17:49.830Z,6.47
2022-10-31T00:22:52.614Z,6.53
2022-10-31T00:27:56.184Z,6.61
2022-10-31T00:33:00.198Z,6.60
2022-10-31T00:38:03.290Z,6.60
2022-10-31T00:43:06.100Z,6.56
2022-10-31T00:48:09.742Z,6.53
2022-10-31T00:53:12.560Z,6.41
2022-10-31T00:58:15.850Z,6.28
2022-10-31T01:03:18.917Z,6.16
2022-10-31T01:08:21.683Z,6.07
2022-10-31T01:13:24.552Z,6.01
2022-10-31T01:18:28.973Z,5.95
2022-10-31T01:23:32.824Z,5.87
2022-10-31T01:28:46.230Z,5.75
2022-10-31T01:33:50.164Z,5.67
2022-10-31T01:38:57.334Z,5.65
2022-10-31T01:44:20.348Z,5.73
2022-10-31T01:49:34.374Z,5.75
2022-10-31T01:54:46.834Z,5.74
2022-10-31T01:59:56.174Z,5.79
2022-10-31T02:05:05.545Z,5.86
2022-10-31T02:10:08.732Z,5.94
2022-10-31T02:15:11.900Z,5.95
2022-10-31T02:20:22.115Z,5.99
2022-10-31T02:25:24.908Z,6.11
2022-10-31T02:30:48.895Z,6.16
2022-10-31T02:36:35.449Z,6.32
2022-10-31T02:42:02.383Z,6.36
2022-10-31T02:47:17.708Z,6.36
2022-10-31T02:52:33.530Z,6.32
2022-10-31T02:57:38.560Z,6.30
2022-10-31T03:03:30.843Z,6.38
2022-10-31T03:08:48.087Z,6.53
2022-10-31T03:14:18.944Z,6.67
2022-10-31T03:19:29.829Z,6.81
2022-10-31T03:24:39.383Z,6.96
2022-10-31T03:29:45.573Z,7.13
2022-10-31T03:34:50.823Z,7.28
2022-10-31T03:39:58.195Z,7.41
2022-10-31T03:45:14.638Z,7.48
2022-10-31T03:50:18.552Z,7.53
2022-10-31T03:56:01.923Z,7.57
2022-10-31T04:01:10.572Z,7.54
2022-10-31T04:06:17.736Z,7.51
2022-10-31T04:11:29.678Z,7.47
2022-10-31T04:16:32.969Z,7.40
2022-10-31T04:21:35.731Z,7.34
2022-10-31T04:26:38.648Z,7.31
2022-10-31T04:31:41.383Z,7.32
2022-10-31T04:36:44.153Z,7.34
2022-10-31T04:41:46.946Z,7.35
2022-10-31T04:46:49.834Z,7.34
2022-10-31T04:51:52.622Z,7.27
2022-10-31T04:56:55.399Z,7.15
2022-10-31T05:01:58.283Z,7.10
2022-10-31T05:07:01.124Z,7.05
2022-10-31T05:12:04.554Z,7.03
2022-10-31T05:17:07.459Z,7.04
2022-10-31T05:22:10.275Z,7.03
2022-10-31T05:27:13.052Z,7.01
2022-10-31T05:32:15.982Z,7.01
2022-10-31T05:37:18.729Z,7.03
2022-10-31T05:42:21.523Z,7.00
2022-10-31T05:47:25.151Z,7.00
2022-10-31T05:52:28.029Z,7.01
2022-10-31T05:57:35.033Z,7.04
2022-10-31T06:02:37.833Z,7.10
2022-10-31T06:07:40.968Z,7.19
2022-10-31T06:12:43.728Z,7.30
2022-10-31T06:17:46.490Z,7.43
2022-10-31T06:22:49.330Z,7.56
2022-10-31T06:27:52.134Z,7.67
2022-10-31T06:32:54.988Z,7.84
2022-10-31T06:37:57.861Z,8.01
2022-10-31T06:43:02.436Z,8.21
2022-10-31T06:48:22.181Z,8.43
2022-10-31T06:53:25.425Z,8.63
2022-10-31T06:58:28.263Z,8.82
2022-10-31T07:03:31.059Z,9.03
2022-10-31T07:08:33.858Z,9.28
2022-10-31T07:13:36.793Z,9.50
2022-10-31T07:18:39.736Z,9.61
2022-10-31T07:23:42.680Z,9.68
2022-10-31T07:28:48.587Z,9.86
2022-10-31T07:33:51.753Z,10.05
2022-10-31T07:38:54.657Z,10.27
2022-10-31T07:43:57.486Z,10.48
2022-10-31T07:49:00.358Z,10.69
2022-10-31T07:54:03.278Z,10.78
2022-10-31T07:59:06.061Z,10.82
2022-10-31T08:04:08.852Z,10.96
2022-10-31T08:09:11.769Z,11.14
2022-10-31T08:14:14.561Z,11.43
2022-10-31T08:19:17.437Z,11.77
2022-10-31T08:24:20.345Z,11.97
2022-10-31T08:29:23.177Z,12.10
2022-10-31T08:34:26.593Z,12.28
2022-10-31T08:39:29.625Z,12.46
2022-10-31T08:44:32.421Z,12.57
2022-10-31T08:49:35.303Z,12.79
2022-10-31T08:54:38.238Z,13.05
2022-10-31T08:59:41.034Z,13.32
2022-10-31T09:04:43.833Z,13.59
2022-10-31T09:09:46.914Z,13.80
2022-10-31T09:14:49.691Z,14.04
2022-10-31T09:19:52.465Z,14.11
2022-10-31T09:24:55.273Z,14.19
2022-10-31T09:29:58.108Z,14.35
2022-10-31T09:35:01.474Z,14.57
2022-10-31T09:40:05.877Z,14.78
2022-10-31T09:45:33.892Z,14.88
2022-10-31T09:51:11.024Z,14.99
2022-10-31T09:56:22.106Z,15.24
2022-10-31T10:01:48.798Z,15.39
2022-10-31T10:06:53.243Z,15.40
2022-10-31T10:12:40.893Z,15.54
2022-10-31T10:18:14.402Z,15.75
2022-10-31T10:23:54.951Z,15.68
2022-10-31T10:29:12.581Z,15.81
2022-10-31T10:34:41.447Z,15.97
2022-10-31T10:39:56.852Z,16.04
2022-10-31T10:45:24.964Z,16.14
2022-10-31T10:50:37.151Z,16.08
2022-10-31T10:55:54.052Z,16.12
2022-10-31T11:00:57.336Z,16.19
2022-10-31T11:06:02.257Z,16.17
2022-10-31T11:11:33.027Z,16.21
2022-10-31T11:16:50.253Z,16.29
2022-10-31T11:21:54.212Z,16.41
2022-10-31T11:27:25.116Z,16.40
2022-10-31T11:32:30.820Z,16.41
2022-10-31T11:37:41.116Z,16.27
2022-10-31T11:42:44.925Z,16.20
2022-10-31T11:47:56.663Z,16.18
2022-10-31T11:53:02.690Z,16.25
2022-10-31T11:58:20.445Z,16.30
2022-10-31T12:03:23.265Z,16.31
2022-10-31T12:08:37.421Z,16.23
2022-10-31T12:13:45.430Z,16.24
2022-10-31T12:19:01.932Z,16.26
2022-10-31T12:24:14.505Z,16.25
2022-10-31T12:29:48.584Z,16.41
2022-10-31T12:35:24.850Z,16.50
2022-10-31T12:40:41.334Z,16.51
2022-10-31T12:46:00.309Z,16.52
2022-10-31T12:51:06.115Z,16.47
2022-10-31T12:56:09.072Z,16.47
2022-10-31T13:01:40.094Z,16.47
2022-10-31T13:06:59.597Z,16.54
2022-10-31T13:12:12.886Z,16.53
2022-10-31T13:17:45.237Z,16.55
2022-10-31T13:22:54.140Z,16.60
2022-10-31T13:28:24.301Z,16.60
2022-10-31T13:33:48.658Z,16.61
2022-10-31T13:39:16.241Z,16.57
2022-10-31T13:44:26.093Z,16.49
2022-10-31T13:49:31.987Z,16.39
2022-10-31T13:54:37.891Z,16.30
2022-10-31T13:59:47.605Z,16.16
2022-10-31T14:04:57.898Z,15.97
2022-10-31T14:10:09.251Z,15.76
2022-10-31T14:15:28.888Z,15.56
2022-10-31T14:20:42.500Z,15.41
2022-10-31T14:25:45.822Z,15.34
2022-10-31T14:30:58.859Z,15.30
2022-10-31T14:36:26.354Z,15.25
2022-10-31T14:42:10.633Z,15.17
2022-10-31T14:47:33.493Z,15.11
2022-10-31T14:52:39.478Z,15.06
2022-10-31T14:57:55.380Z,14.98
2022-10-31T15:03:17.928Z,14.88
2022-10-31T15:08:53.377Z,14.78
2022-10-31T15:14:03.329Z,14.71
2022-10-31T15:19:13.426Z,14.63
2022-10-31T15:24:19.782Z,14.56
2022-10-31T15:29:27.901Z,14.52
2022-10-31T15:34:41.081Z,14.48
2022-10-31T15:39:45.822Z,14.43
2022-10-31T15:45:19.697Z,14.38
2022-10-31T15:50:42.033Z,14.32
2022-10-31T15:55:54.496Z,14.24
2022-10-31T16:01:06.372Z,14.15
2022-10-31T16:06:22.290Z,14.09
2022-10-31T16:11:35.276Z,14.01
2022-10-31T16:16:50.602Z,13.95
2022-10-31T16:22:04.885Z,13.90
2022-10-31T16:27:30.048Z,13.82
2022-10-31T16:32:52.658Z,13.76
2022-10-31T16:37:55.824Z,13.71
2022-10-31T16:43:01.588Z,13.65
2022-10-31T16:48:10.843Z,13.59
2022-10-31T16:53:18.626Z,13.58
2022-10-31T16:58:30.747Z,13.58
2022-10-31T17:03:34.143Z,13.60
2022-10-31T17:08:37.445Z,13.62
2022-10-31T17:13:40.691Z,13.62
2022-10-31T17:18:43.975Z,13.62
2022-10-31T17:23:58.031Z,13.62
2022-10-31T17:29:04.038Z,13.56
2022-10-31T17:34:08.963Z,13.46
2022-10-31T17:39:11.931Z,13.35
2022-10-31T17:44:14.758Z,13.22
2022-10-31T17:49:17.599Z,13.09
2022-10-31T17:54:22.933Z,12.97
2022-10-31T17:59:27.762Z,12.88
2022-10-31T18:04:30.563Z,12.75
2022-10-31T18:09:34.298Z,12.65
2022-10-31T18:14:37.123Z,12.53
2022-10-31T18:19:39.948Z,12.43
2022-10-31T18:24:43.151Z,12.34
2022-10-31T18:29:46.636Z,12.33
2022-10-31T18:34:49.537Z,12.28
2022-10-31T18:39:52.490Z,12.22
2022-10-31T18:44:56.258Z,12.21
2022-10-31T18:49:59.190Z,12.21
2022-10-31T18:55:02.026Z,12.19
2022-10-31T19:00:06.925Z,12.17
2022-10-31T19:05:09.883Z,12.15
2022-10-31T19:10:13.036Z,12.13
2022-10-31T19:15:16.039Z,12.08
2022-10-31T19:20:18.995Z,12.07
2022-10-31T19:25:22.121Z,12.03
2022-10-31T19:30:25.035Z,12.01
2022-10-31T19:35:27.994Z,11.98
2022-10-31T19:40:30.961Z,11.98
2022-10-31T19:45:33.920Z,11.98
2022-10-31T19:50:36.785Z,12.01
2022-10-31T19:55:41.339Z,12.03
2022-10-31T20:00:44.301Z,12.03
2022-10-31T20:05:47.573Z,12.03
2022-10-31T20:10:59.475Z,12.03
2022-10-31T20:16:07.164Z,12.03
2022-10-31T20:21:14.450Z,12.00
2022-10-31T20:26:19.890Z,11.98
2022-10-31T20:31:36.035Z,11.97
2022-10-31T20:36:38.974Z,11.97
2022-10-31T20:41:41.920Z,11.99
2022-10-31T20:46:44.758Z,12.01
2022-10-31T20:51:47.832Z,12.02
2022-10-31T20:56:50.760Z,12.04
2022-10-31T21:01:53.831Z,12.07
2022-10-31T21:06:56.874Z,12.06
2022-10-31T21:11:59.867Z,12.06
2022-10-31T21:17:05.135Z,12.07
2022-10-31T21:22:08.081Z,12.09
2022-10-31T21:27:12.511Z,12.09
2022-10-31T21:32:15.688Z,12.12
2022-10-31T21:37:18.616Z,12.15
2022-10-31T21:42:23.305Z,12.15
2022-10-31T21:47:26.304Z,12.15
2022-10-31T21:52:29.200Z,12.20
2022-10-31T21:57:33.004Z,12.29
2022-10-31T22:02:37.335Z,12.32
2022-10-31T22:07:40.324Z,12.34
2022-10-31T22:12:44.166Z,12.38
2022-10-31T22:17:47.001Z,12.36
2022-10-31T22:22:51.079Z,12.27
2022-10-31T22:27:53.940Z,12.20
2022-10-31T22:32:56.764Z,12.21
2022-10-31T22:37:59.625Z,12.24
2022-10-31T22:43:02.765Z,12.26
2022-10-31T22:48:06.447Z,12.26
2022-10-31T22:53:09.286Z,12.25
2022-10-31T22:58:12.254Z,12.23
2022-10-31T23:03:15.181Z,12.23
2022-10-31T23:08:18.015Z,12.17
2022-10-31T23:13:39.458Z,12.15
2022-10-31T23:18:50.154Z,12.11
2022-10-31T23:23:53.632Z,12.08
2022-10-31T23:28:56.528Z,12.02
2022-10-31T23:33:59.338Z,12.02
2022-10-31T23:39:04.888Z,12.03
2022-10-31T23:44:07.861Z,12.06
2022-10-31T23:49:11.568Z,12.09
2022-10-31T23:54:14.644Z,12.09
2022-10-31T23:59:18.194Z,12.11
